createdAt,value
2023-04-17T00:00:12.517Z,65.78
2023-04-17T00:02:41.864Z,59.97
2023-04-17T00:05:11.197Z,63.53
2023-04-17T00:07:41.374Z,61.97
2023-04-17T00:10:11.156Z,61.55
2023-04-17T00:12:40.775Z,60.65
2023-04-17T00:15:09.928Z,62.80
2023-04-17T00:17:38.068Z,58.25
2023-04-17T00:20:10.523Z,54.45
2023-04-17T00:22:38.873Z,59.17
2023-04-17T00:25:07.757Z,62.58
2023-04-17T00:27:35.980Z,60.88
2023-04-17T00:30:06.452Z,58.78
2023-04-17T00:32:34.880Z,59.60
2023-04-17T00:35:03.634Z,57.60
2023-04-17T00:37:31.925Z,55.25
2023-04-17T00:39:59.987Z,57.38
2023-04-17T00:42:28.094Z,56.20
2023-04-17T00:44:57.416Z,61.03
2023-04-17T00:47:27.208Z,56.97
2023-04-17T00:49:55.584Z,59.50
2023-04-17T00:52:29.205Z,54.47
2023-04-17T00:55:00.916Z,53.72
2023-04-17T00:57:29.381Z,56.25
2023-04-17T00:59:59.008Z,55.33
2023-04-17T01:02:31.827Z,60.58
2023-04-17T01:05:02.809Z,53.35
2023-04-17T01:07:31.668Z,52.35
2023-04-17T01:10:00.679Z,57.67
2023-04-17T01:12:29.481Z,60.83
2023-04-17T01:14:58.924Z,54.08
2023-04-17T01:17:29.004Z,54.65
2023-04-17T01:19:58.200Z,54.70
2023-04-17T01:22:26.543Z,57.35
2023-04-17T01:24:56.207Z,61.05
2023-04-17T01:27:24.860Z,55.05
2023-04-17T01:29:53.154Z,54.97
2023-04-17T01:32:21.368Z,61.20
2023-04-17T01:34:49.453Z,63.33
2023-04-17T01:37:20.767Z,62.13
2023-04-17T01:39:48.951Z,59.43
2023-04-17T01:42:18.777Z,65.10
2023-04-17T01:44:47.174Z,66.40
2023-04-17T01:47:17.477Z,64.10
2023-04-17T01:49:45.897Z,61.33
2023-04-17T01:52:13.975Z,70.72
2023-04-17T01:54:44.383Z,61.30
2023-04-17T01:57:12.615Z,63.28
2023-04-17T01:59:42.451Z,58.13
2023-04-17T02:02:10.892Z,59.13
2023-04-17T02:04:39.245Z,60.08
2023-04-17T02:07:07.537Z,59.65
2023-04-17T02:09:35.616Z,63.05
2023-04-17T02:12:03.702Z,63.70
2023-04-17T02:14:31.975Z,58.72
2023-04-17T02:17:01.607Z,63.85
2023-04-17T02:19:31.616Z,65.93
2023-04-17T02:21:59.788Z,63.10
2023-04-17T02:24:28.210Z,71.15
2023-04-17T02:26:57.663Z,72.45
2023-04-17T02:29:26.020Z,63.00
2023-04-17T02:31:54.253Z,62.17
2023-04-17T02:34:26.283Z,67.65
2023-04-17T02:36:54.330Z,66.25
2023-04-17T02:39:22.451Z,65.78
2023-04-17T02:41:50.513Z,61.97
2023-04-17T02:44:18.629Z,62.10
2023-04-17T02:46:46.866Z,61.70
2023-04-17T02:49:15.005Z,57.55
2023-04-17T02:51:44.867Z,62.85
2023-04-17T02:54:13.208Z,64.30
2023-04-17T02:56:44.461Z,56.80
2023-04-17T02:59:13.908Z,66.10
2023-04-17T03:01:44.974Z,64.65
2023-04-17T03:04:13.271Z,58.45
2023-04-17T03:06:43.602Z,67.13
2023-04-17T03:09:14.792Z,70.13
2023-04-17T03:11:42.890Z,67.68
2023-04-17T03:14:11.281Z,68.03
2023-04-17T03:16:39.271Z,67.18
2023-04-17T03:19:07.384Z,61.20
2023-04-17T03:21:35.764Z,64.18
2023-04-17T03:24:03.975Z,57.72
2023-04-17T03:26:33.603Z,54.37
2023-04-17T03:29:01.689Z,50.60
2023-04-17T03:31:29.878Z,51.05
2023-04-17T03:34:00.718Z,49.70
2023-04-17T03:36:29.114Z,56.85
2023-04-17T03:38:57.901Z,60.47
2023-04-17T03:41:26.189Z,57.58
2023-04-17T03:43:55.932Z,63.90
2023-04-17T03:46:24.490Z,62.80
2023-04-17T03:48:52.715Z,53.00
2023-04-17T03:51:21.125Z,55.83
2023-04-17T03:53:49.308Z,49.47
2023-04-17T03:56:17.532Z,50.95
2023-04-17T03:58:45.865Z,55.05
2023-04-17T04:01:15.729Z,50.30
2023-04-17T04:03:44.138Z,50.15
2023-04-17T04:06:12.739Z,51.25
2023-04-17T04:08:41.465Z,48.30
2023-04-17T04:11:09.584Z,52.00
2023-04-17T04:13:37.758Z,51.55
2023-04-17T04:16:06.835Z,50.80
2023-04-17T04:18:36.480Z,49.75
2023-04-17T04:21:08.684Z,51.35
2023-04-17T04:23:37.831Z,51.15
2023-04-17T04:26:06.062Z,53.10
2023-04-17T04:28:34.171Z,54.15
2023-04-17T04:31:02.782Z,53.22
2023-04-17T04:33:31.545Z,49.53
2023-04-17T04:36:04.394Z,52.15
2023-04-17T04:38:33.035Z,52.15
2023-04-17T04:41:06.288Z,53.53
2023-04-17T04:43:35.674Z,51.47
2023-04-17T04:46:04.342Z,50.53
2023-04-17T04:48:32.537Z,54.63
2023-04-17T04:51:01.222Z,52.78
2023-04-17T04:53:31.669Z,53.03
2023-04-17T04:55:59.850Z,51.63
2023-04-17T04:58:29.523Z,56.78
2023-04-17T05:01:05.030Z,56.60
2023-04-17T05:03:39.913Z,57.38
2023-04-17T05:06:09.647Z,57.83
2023-04-17T05:08:42.652Z,60.92
2023-04-17T05:11:10.848Z,59.63
2023-04-17T05:13:40.951Z,60.70
2023-04-17T05:16:09.172Z,56.58
2023-04-17T05:18:37.522Z,60.55
2023-04-17T05:21:05.817Z,54.63
2023-04-17T05:23:33.987Z,53.85
2023-04-17T05:26:04.065Z,52.83
2023-04-17T05:28:32.234Z,54.55
2023-04-17T05:31:00.601Z,56.03
2023-04-17T05:33:29.192Z,55.45
2023-04-17T05:35:57.364Z,55.70
2023-04-17T05:38:25.637Z,56.47
2023-04-17T05:40:57.013Z,54.83
2023-04-17T05:43:34.480Z,57.90
2023-04-17T05:46:02.660Z,53.58
2023-04-17T05:48:31.197Z,55.13
2023-04-17T05:50:59.740Z,52.88
2023-04-17T05:53:28.302Z,53.40
2023-04-17T05:55:59.030Z,55.75
2023-04-17T05:58:31.382Z,50.28
2023-04-17T06:00:59.761Z,51.28
2023-04-17T06:03:28.308Z,50.58
2023-04-17T06:05:57.227Z,50.53
2023-04-17T06:08:25.511Z,49.60
2023-04-17T06:10:53.730Z,51.88
2023-04-17T06:13:23.541Z,49.40
2023-04-17T06:15:53.201Z,50.70
2023-04-17T06:18:23.016Z,53.83
2023-04-17T06:20:51.127Z,51.00
2023-04-17T06:23:19.261Z,50.80
2023-04-17T06:25:47.323Z,48.90
2023-04-17T06:28:17.916Z,54.50
2023-04-17T06:30:46.138Z,50.22
2023-04-17T06:33:15.761Z,49.38
2023-04-17T06:35:43.866Z,48.35
2023-04-17T06:38:12.145Z,48.53
2023-04-17T06:40:40.536Z,49.50
2023-04-17T06:43:08.898Z,47.72
2023-04-17T06:45:37.088Z,46.95
2023-04-17T06:48:05.807Z,47.75
2023-04-17T06:50:35.996Z,48.88
2023-04-17T06:53:04.129Z,47.80
2023-04-17T06:55:33.394Z,49.28
2023-04-17T06:58:01.369Z,49.72
2023-04-17T07:00:29.632Z,48.03
2023-04-17T07:02:58.108Z,47.55
2023-04-17T07:05:26.602Z,48.30
2023-04-17T07:07:56.621Z,47.45
2023-04-17T07:10:24.833Z,47.72
2023-04-17T07:12:52.878Z,48.00
2023-04-17T07:15:21.332Z,47.95
2023-04-17T07:17:49.619Z,48.75
2023-04-17T07:20:17.693Z,47.60
2023-04-17T07:22:45.758Z,47.85
2023-04-17T07:25:17.427Z,49.20
2023-04-17T07:27:45.615Z,50.22
2023-04-17T07:30:14.174Z,47.85
2023-04-17T07:32:42.502Z,48.35
2023-04-17T07:35:11.022Z,47.35
2023-04-17T07:37:39.146Z,48.75
2023-04-17T07:40:10.648Z,49.17
2023-04-17T07:42:42.315Z,49.42
2023-04-17T07:45:13.488Z,49.30
2023-04-17T07:47:42.851Z,48.10
2023-04-17T07:50:15.199Z,50.15
2023-04-17T07:52:43.787Z,49.75
2023-04-17T07:55:11.917Z,52.25
2023-04-17T07:57:43.037Z,50.10
2023-04-17T08:00:20.123Z,48.40
2023-04-17T08:02:52.714Z,50.35
2023-04-17T08:05:21.206Z,49.42
2023-04-17T08:07:49.404Z,51.22
2023-04-17T08:10:20.043Z,51.05
2023-04-17T08:12:51.926Z,51.15
2023-04-17T08:15:21.109Z,50.58
2023-04-17T08:17:49.635Z,52.03
2023-04-17T08:20:21.309Z,51.90
2023-04-17T08:22:50.250Z,52.08
2023-04-17T08:25:18.709Z,52.35
2023-04-17T08:27:47.263Z,52.00
2023-04-17T08:30:19.258Z,52.72
2023-04-17T08:32:57.900Z,54.42
2023-04-17T08:35:28.540Z,53.10
2023-04-17T08:37:58.912Z,56.75
2023-04-17T08:40:27.492Z,52.25
2023-04-17T08:43:00.670Z,55.28
2023-04-17T08:45:30.775Z,53.30
2023-04-17T08:48:01.791Z,54.60
2023-04-17T08:50:32.645Z,53.65
2023-04-17T08:53:03.053Z,54.90
2023-04-17T08:55:33.423Z,54.50
2023-04-17T08:58:04.500Z,54.45
2023-04-17T09:00:35.933Z,54.58
2023-04-17T09:03:07.805Z,55.58
2023-04-17T09:05:37.692Z,56.63
2023-04-17T09:08:14.418Z,54.72
2023-04-17T09:10:44.135Z,55.95
2023-04-17T09:13:14.887Z,55.22
2023-04-17T09:15:49.270Z,53.38
2023-04-17T09:18:27.700Z,54.58
2023-04-17T09:20:58.531Z,55.42
2023-04-17T09:23:28.400Z,53.78
2023-04-17T09:26:09.989Z,54.05
2023-04-17T09:28:43.866Z,57.05
2023-04-17T09:31:28.510Z,53.72
2023-04-17T09:34:01.589Z,56.13
2023-04-17T09:36:32.032Z,55.42
2023-04-17T09:39:01.451Z,55.78
2023-04-17T09:41:31.843Z,55.08
2023-04-17T09:44:05.743Z,55.75
2023-04-17T09:46:41.418Z,56.35
2023-04-17T09:49:15.175Z,56.20
2023-04-17T09:51:47.086Z,55.95
2023-04-17T09:54:17.168Z,57.58
2023-04-17T09:56:46.397Z,56.95
2023-04-17T09:59:16.222Z,56.95
2023-04-17T10:01:47.729Z,56.08
2023-04-17T10:04:16.513Z,55.72
2023-04-17T10:06:45.209Z,56.85
2023-04-17T10:09:15.145Z,55.25
2023-04-17T10:11:46.944Z,56.75
2023-04-17T10:14:20.710Z,56.85
2023-04-17T10:16:50.654Z,55.42
2023-04-17T10:19:28.736Z,55.75
2023-04-17T10:22:31.362Z,56.65
2023-04-17T10:25:18.794Z,56.97
2023-04-17T10:27:51.913Z,58.03
2023-04-17T10:30:22.568Z,56.78
2023-04-17T10:33:34.044Z,57.67
2023-04-17T10:36:06.205Z,59.05
2023-04-17T10:38:36.977Z,60.22
2023-04-17T10:41:09.266Z,59.40
2023-04-17T10:43:41.964Z,58.60
2023-04-17T10:46:12.370Z,59.88
2023-04-17T10:48:47.962Z,60.28
2023-04-17T10:51:49.818Z,61.50
2023-04-17T10:54:19.914Z,61.97
2023-04-17T10:56:48.575Z,60.13
2023-04-17T10:59:18.949Z,60.88
2023-04-17T11:02:04.350Z,61.60
2023-04-17T11:04:34.103Z,58.83
2023-04-17T11:07:02.661Z,59.33
2023-04-17T11:09:32.114Z,60.05
2023-04-17T11:12:01.441Z,59.97
2023-04-17T11:14:30.519Z,60.10
2023-04-17T11:16:58.751Z,59.03
2023-04-17T11:19:29.308Z,63.20
2023-04-17T11:21:58.909Z,60.75
2023-04-17T11:24:28.626Z,65.00
2023-04-17T11:27:01.020Z,65.85
2023-04-17T11:29:29.652Z,67.78
2023-04-17T11:31:59.291Z,68.32
2023-04-17T11:34:27.870Z,68.75
2023-04-17T11:36:58.330Z,70.43
2023-04-17T11:39:31.066Z,66.60
2023-04-17T11:42:02.487Z,68.13
2023-04-17T11:44:30.811Z,57.08
2023-04-17T11:46:59.932Z,47.75
2023-04-17T11:49:28.933Z,31.55
2023-04-17T11:52:01.797Z,27.27
2023-04-17T11:54:33.055Z,21.67
2023-04-17T11:57:06.531Z,21.23
2023-04-17T11:59:37.756Z,19.65
2023-04-17T12:02:10.472Z,19.10
2023-04-17T12:04:41.669Z,21.10
2023-04-17T12:07:23.142Z,22.33
2023-04-17T12:09:56.862Z,17.15
2023-04-17T12:12:28.805Z,21.83
2023-04-17T12:14:56.833Z,18.85
2023-04-17T12:17:25.092Z,17.40
2023-04-17T12:19:53.199Z,21.15
2023-04-17T12:22:21.590Z,18.30
2023-04-17T12:24:52.766Z,16.52
2023-04-17T12:27:21.699Z,17.60
2023-04-17T12:29:51.342Z,17.75
2023-04-17T12:32:19.606Z,17.98
2023-04-17T12:34:48.100Z,17.45
2023-04-17T12:37:16.943Z,17.38
2023-04-17T12:39:45.215Z,19.17
2023-04-17T12:42:13.394Z,16.98
2023-04-17T12:44:41.813Z,16.60
2023-04-17T12:47:11.757Z,18.70
2023-04-17T12:49:39.961Z,17.85
2023-04-17T12:52:18.220Z,20.70
2023-04-17T12:54:54.279Z,17.40
2023-04-17T12:57:22.963Z,16.45
2023-04-17T12:59:53.738Z,16.98
2023-04-17T13:02:28.715Z,16.98
2023-04-17T13:04:56.969Z,19.60
2023-04-17T13:07:25.224Z,17.42
2023-04-17T13:09:54.661Z,18.25
2023-04-17T13:12:24.965Z,16.45
2023-04-17T13:14:57.996Z,17.38
2023-04-17T13:17:32.358Z,17.30
2023-04-17T13:20:00.757Z,18.67
2023-04-17T13:22:28.818Z,17.30
2023-04-17T13:24:56.969Z,15.98
2023-04-17T13:27:25.491Z,14.30
2023-04-17T13:29:53.743Z,15.75
2023-04-17T13:32:24.699Z,17.90
2023-04-17T13:34:56.762Z,18.65
2023-04-17T13:37:26.607Z,15.32
2023-04-17T13:39:54.803Z,19.48
2023-04-17T13:42:23.979Z,15.73
2023-04-17T13:44:52.048Z,17.35
2023-04-17T13:47:20.339Z,18.55
2023-04-17T13:49:48.478Z,18.92
2023-04-17T13:52:18.091Z,19.05
2023-04-17T13:54:53.643Z,20.02
2023-04-17T13:57:21.867Z,19.42
2023-04-17T13:59:50.057Z,20.67
2023-04-17T14:02:18.372Z,17.98
2023-04-17T14:04:47.882Z,17.95
2023-04-17T14:07:18.396Z,19.13
2023-04-17T14:09:49.833Z,18.05
2023-04-17T14:12:22.959Z,18.40
2023-04-17T14:14:51.201Z,20.08
2023-04-17T14:17:20.100Z,17.38
2023-04-17T14:19:49.484Z,18.08
2023-04-17T14:22:20.560Z,20.02
2023-04-17T14:24:48.779Z,17.58
2023-04-17T14:27:19.015Z,16.90
2023-04-17T14:29:47.484Z,17.70
2023-04-17T14:32:23.232Z,17.00
2023-04-17T14:34:51.553Z,17.48
2023-04-17T14:37:21.169Z,18.35
2023-04-17T14:39:49.163Z,18.50
2023-04-17T14:42:17.258Z,15.68
2023-04-17T14:44:47.141Z,17.67
2023-04-17T14:47:16.602Z,18.38
2023-04-17T14:49:44.854Z,16.92
2023-04-17T14:52:12.982Z,16.17
2023-04-17T14:54:45.942Z,18.02
2023-04-17T14:57:14.457Z,16.58
2023-04-17T14:59:45.688Z,16.23
2023-04-17T15:02:14.184Z,15.05
2023-04-17T15:04:43.043Z,15.65
2023-04-17T15:07:14.076Z,18.67
2023-04-17T15:09:43.766Z,17.52
2023-04-17T15:12:12.157Z,14.35
2023-04-17T15:14:52.370Z,17.45
2023-04-17T15:17:26.561Z,15.02
2023-04-17T15:19:57.838Z,15.63
2023-04-17T15:22:34.405Z,15.00
2023-04-17T15:25:14.722Z,15.70
2023-04-17T15:27:43.899Z,14.48
2023-04-17T15:30:20.564Z,14.00
2023-04-17T15:32:48.847Z,15.07
2023-04-17T15:35:16.953Z,14.23
2023-04-17T15:37:45.258Z,16.65
2023-04-17T15:40:17.581Z,15.75
2023-04-17T15:42:47.987Z,14.23
2023-04-17T15:45:17.298Z,13.48
2023-04-17T15:47:58.766Z,14.55
2023-04-17T15:50:36.119Z,14.40
2023-04-17T15:53:21.711Z,14.10
2023-04-17T15:55:57.591Z,17.42
2023-04-17T15:58:26.002Z,14.23
2023-04-17T16:00:54.569Z,16.30
2023-04-17T16:03:29.137Z,14.43
2023-04-17T16:06:05.790Z,15.07
2023-04-17T16:08:34.148Z,17.60
2023-04-17T16:11:03.767Z,14.57
2023-04-17T16:13:31.916Z,16.52
2023-04-17T16:16:00.298Z,17.13
2023-04-17T16:18:32.384Z,16.63
2023-04-17T16:21:00.719Z,17.02
2023-04-17T16:23:28.904Z,17.63
2023-04-17T16:25:57.581Z,16.90
2023-04-17T16:28:27.515Z,23.45
2023-04-17T16:30:56.280Z,15.55
2023-04-17T16:33:24.526Z,18.75
2023-04-17T16:35:55.611Z,17.05
2023-04-17T16:38:24.177Z,17.08
2023-04-17T16:40:53.632Z,17.25
2023-04-17T16:43:25.889Z,16.27
2023-04-17T16:45:55.668Z,21.30
2023-04-17T16:48:24.192Z,17.52
2023-04-17T16:50:53.848Z,16.23
2023-04-17T16:53:22.226Z,17.08
2023-04-17T16:55:50.685Z,15.55
2023-04-17T16:58:19.109Z,17.17
2023-04-17T17:00:47.423Z,16.75
2023-04-17T17:03:17.393Z,20.35
2023-04-17T17:05:48.141Z,19.23
2023-04-17T17:08:18.922Z,19.90
2023-04-17T17:10:49.533Z,19.00
2023-04-17T17:13:18.060Z,18.42
2023-04-17T17:15:46.480Z,26.02
2023-04-17T17:18:16.157Z,18.00
2023-04-17T17:20:44.331Z,18.45
2023-04-17T17:23:12.813Z,18.15
2023-04-17T17:25:42.616Z,17.88
2023-04-17T17:28:11.143Z,22.65
2023-04-17T17:30:39.394Z,23.67
2023-04-17T17:33:07.769Z,23.02
2023-04-17T17:35:37.317Z,21.73
2023-04-17T17:38:05.716Z,23.13
2023-04-17T17:40:35.684Z,23.55
2023-04-17T17:43:04.211Z,25.13
2023-04-17T17:45:36.830Z,21.98
2023-04-17T17:48:05.396Z,22.08
2023-04-17T17:50:36.011Z,21.80
2023-04-17T17:53:14.236Z,21.75
2023-04-17T17:55:51.619Z,22.95
2023-04-17T17:58:26.216Z,25.67
2023-04-17T18:00:54.557Z,27.65
2023-04-17T18:03:31.007Z,25.33
2023-04-17T18:06:11.163Z,25.38
2023-04-17T18:08:53.463Z,25.77
2023-04-17T18:11:25.994Z,26.58
2023-04-17T18:13:57.256Z,29.83
2023-04-17T18:16:45.645Z,31.63
2023-04-17T18:19:14.342Z,30.05
2023-04-17T18:21:47.702Z,33.03
2023-04-17T18:24:22.122Z,40.88
2023-04-17T18:26:50.696Z,50.50
2023-04-17T18:29:18.779Z,55.22
2023-04-17T18:31:47.303Z,58.47
2023-04-17T18:34:21.293Z,59.65
2023-04-17T18:36:54.627Z,59.70
2023-04-17T18:39:24.446Z,61.03
2023-04-17T18:41:52.701Z,60.05
2023-04-17T18:44:24.615Z,59.90
2023-04-17T18:46:53.037Z,58.83
2023-04-17T18:49:21.475Z,60.90
2023-04-17T18:51:50.281Z,58.70
2023-04-17T18:54:19.566Z,57.80
2023-04-17T18:56:51.813Z,58.60
2023-04-17T18:59:21.420Z,61.60
2023-04-17T19:01:49.624Z,56.22
2023-04-17T19:04:31.860Z,61.40
2023-04-17T19:07:01.549Z,59.00
2023-04-17T19:09:35.396Z,58.30
2023-04-17T19:12:05.388Z,55.65
2023-04-17T19:14:35.177Z,57.63
2023-04-17T19:17:06.780Z,55.38
2023-04-17T19:19:47.548Z,60.35
2023-04-17T19:22:16.150Z,59.90
2023-04-17T19:24:44.891Z,59.15
2023-04-17T19:27:14.746Z,59.05
2023-04-17T19:29:59.011Z,61.88
2023-04-17T19:32:34.610Z,56.88
2023-04-17T19:35:04.544Z,60.10
2023-04-17T19:37:33.473Z,59.55
2023-04-17T19:40:04.299Z,59.83
2023-04-17T19:42:38.863Z,59.63
2023-04-17T19:45:08.161Z,62.35
2023-04-17T19:47:37.416Z,65.10
2023-04-17T19:50:06.601Z,64.38
2023-04-17T19:52:38.594Z,60.47
2023-04-17T19:55:15.506Z,62.30
2023-04-17T19:57:45.829Z,60.53
2023-04-17T20:00:16.560Z,61.10
2023-04-17T20:02:45.006Z,60.38
2023-04-17T20:05:14.397Z,61.53
2023-04-17T20:07:42.860Z,59.90
2023-04-17T20:10:12.525Z,57.70
2023-04-17T20:12:46.891Z,61.17
2023-04-17T20:15:21.690Z,63.03
2023-04-17T20:17:51.251Z,62.55
2023-04-17T20:20:22.725Z,56.75
2023-04-17T20:22:51.428Z,60.13
2023-04-17T20:25:19.986Z,62.22
2023-04-17T20:27:48.138Z,61.10
2023-04-17T20:30:20.115Z,60.38
2023-04-17T20:32:51.154Z,61.10
2023-04-17T20:35:24.507Z,65.93
2023-04-17T20:37:53.192Z,66.55
2023-04-17T20:40:21.470Z,65.93
2023-04-17T20:42:49.856Z,71.95
2023-04-17T20:45:19.617Z,71.95
2023-04-17T20:50:19.013Z,66.95
2023-04-17T20:52:48.420Z,65.50
2023-04-17T20:55:18.333Z,56.58
2023-04-17T20:57:46.726Z,53.35
2023-04-17T21:00:17.438Z,53.55
2023-04-17T21:02:49.649Z,51.95
2023-04-17T21:05:19.393Z,51.17
2023-04-17T21:07:49.504Z,50.70
2023-04-17T21:10:19.976Z,52.47
2023-04-17T21:12:48.231Z,51.72
2023-04-17T21:15:16.494Z,50.80
2023-04-17T21:17:47.772Z,50.67
2023-04-17T21:20:18.428Z,51.35
2023-04-17T21:22:46.585Z,51.42
2023-04-17T21:25:14.709Z,51.67
2023-04-17T21:27:43.908Z,51.95
2023-04-17T21:30:12.579Z,51.40
2023-04-17T21:32:42.314Z,50.45
2023-04-17T21:35:12.181Z,51.35
2023-04-17T21:37:42.559Z,51.83
2023-04-17T21:40:11.650Z,50.53
2023-04-17T21:42:41.194Z,51.22
2023-04-17T21:45:10.268Z,50.83
2023-04-17T21:47:38.532Z,50.60
2023-04-17T21:50:07.673Z,51.42
2023-04-17T21:52:37.081Z,50.17
2023-04-17T21:55:07.713Z,50.33
2023-04-17T21:57:36.083Z,50.25
2023-04-17T22:00:05.679Z,49.13
2023-04-17T22:02:34.009Z,50.30
2023-04-17T22:05:02.419Z,51.80
2023-04-17T22:07:32.648Z,51.42
2023-04-17T22:10:06.678Z,58.97
2023-04-17T22:12:34.769Z,64.50
2023-04-17T22:15:03.004Z,65.95
2023-04-17T22:17:34.184Z,61.92
2023-04-17T22:20:38.656Z,60.00
2023-04-17T22:23:44.363Z,61.33
2023-04-17T22:26:33.163Z,65.15
2023-04-17T22:29:56.572Z,70.15
2023-04-17T22:33:02.307Z,70.03
2023-04-17T22:36:25.793Z,73.82
2023-04-17T22:39:31.661Z,68.00
2023-04-17T22:42:37.801Z,73.57
2023-04-17T22:45:07.337Z,78.15
2023-04-17T22:48:12.631Z,71.78
2023-04-17T22:51:36.019Z,72.28
2023-04-17T22:54:15.008Z,73.38
2023-04-17T22:57:26.218Z,71.90
2023-04-17T23:00:31.750Z,72.25
2023-04-17T23:04:00.791Z,68.18
2023-04-17T23:06:49.037Z,61.17
2023-04-17T23:09:17.104Z,58.05
2023-04-17T23:11:45.266Z,54.47
2023-04-17T23:14:13.585Z,54.72
2023-04-17T23:16:42.103Z,54.72
2023-04-17T23:19:10.124Z,52.92
2023-04-17T23:21:38.532Z,52.97
2023-04-17T23:24:08.145Z,54.05
2023-04-17T23:26:36.230Z,52.17
2023-04-17T23:29:14.530Z,53.90
2023-04-17T23:31:45.896Z,52.10
2023-04-17T23:34:16.229Z,53.75
2023-04-17T23:36:44.518Z,54.30
2023-04-17T23:39:14.013Z,54.92
2023-04-17T23:41:43.186Z,53.33
2023-04-17T23:44:11.672Z,53.38
2023-04-17T23:46:41.824Z,52.10
2023-04-17T23:49:10.111Z,54.38
2023-04-17T23:51:38.212Z,53.53
2023-04-17T23:54:07.956Z,55.03
2023-04-17T23:56:37.887Z,55.47
2023-04-17T23:59:05.941Z,54.25
